createdAt,value
2023-03-08T00:00:21.202Z,1.17
2023-03-08T00:02:49.081Z,2.33
2023-03-08T00:05:17.589Z,3.90
2023-03-08T00:07:46.936Z,1.13
2023-03-08T00:10:15.172Z,2.50
2023-03-08T00:12:43.025Z,2.33
2023-03-08T00:15:11.697Z,1.47
2023-03-08T00:17:40.817Z,1.77
2023-03-08T00:20:10.581Z,2.13
2023-03-08T00:22:39.262Z,2.57
2023-03-08T00:25:09.981Z,3.57
2023-03-08T00:27:38.074Z,1.93
2023-03-08T00:30:07.420Z,1.97
2023-03-08T00:32:35.386Z,1.60
2023-03-08T00:35:03.239Z,0.97
2023-03-08T00:37:31.129Z,1.73
2023-03-08T00:39:58.936Z,2.63
2023-03-08T00:42:28.216Z,0.93
2023-03-08T00:44:56.487Z,1.57
2023-03-08T00:47:24.629Z,4.03
2023-03-08T00:49:52.489Z,0.80
2023-03-08T00:52:20.473Z,1.33
2023-03-08T00:54:48.593Z,0.60
2023-03-08T00:57:16.583Z,2.43
2023-03-08T00:59:45.890Z,0.47
2023-03-08T01:02:13.967Z,2.00
2023-03-08T01:04:41.838Z,0.60
2023-03-08T01:07:09.661Z,2.50
2023-03-08T01:09:37.505Z,1.53
2023-03-08T01:12:05.968Z,0.97
2023-03-08T01:14:33.788Z,2.67
2023-03-08T01:17:03.034Z,0.80
2023-03-08T01:19:30.822Z,0.80
2023-03-08T01:21:58.690Z,2.70
2023-03-08T01:24:26.509Z,1.70
2023-03-08T01:26:55.885Z,1.33
2023-03-08T01:29:23.780Z,2.77
2023-03-08T01:31:51.597Z,2.00
2023-03-08T01:34:21.004Z,0.70
2023-03-08T01:36:49.020Z,1.97
2023-03-08T01:39:16.844Z,1.60
2023-03-08T01:41:44.740Z,0.83
2023-03-08T01:44:17.143Z,2.27
2023-03-08T01:46:45.470Z,3.43
2023-03-08T01:49:17.020Z,5.07
2023-03-08T01:51:51.466Z,0.60
2023-03-08T01:54:24.227Z,2.10
2023-03-08T01:56:53.795Z,0.67
2023-03-08T01:59:24.094Z,1.83
2023-03-08T02:01:51.895Z,1.90
2023-03-08T02:04:19.889Z,1.90
2023-03-08T02:06:49.190Z,2.50
2023-03-08T02:09:17.114Z,3.63
2023-03-08T02:11:45.376Z,0.67
2023-03-08T02:14:13.282Z,0.80
2023-03-08T02:16:41.211Z,2.80
2023-03-08T02:19:15.437Z,1.87
2023-03-08T02:21:43.377Z,3.77
2023-03-08T02:24:21.246Z,1.53
2023-03-08T02:26:50.808Z,1.97
2023-03-08T02:29:18.590Z,2.90
2023-03-08T02:31:46.461Z,1.87
2023-03-08T02:34:14.449Z,2.20
2023-03-08T02:36:42.305Z,2.97
2023-03-08T02:39:10.225Z,1.67
2023-03-08T02:41:39.410Z,2.83
2023-03-08T02:44:07.288Z,4.70
2023-03-08T02:46:36.009Z,3.23
2023-03-08T02:49:03.886Z,2.60
2023-03-08T02:51:32.858Z,2.07
2023-03-08T02:54:00.900Z,2.43
2023-03-08T02:56:28.767Z,2.13
2023-03-08T02:58:57.957Z,2.43
2023-03-08T03:01:26.072Z,4.03
2023-03-08T03:03:55.114Z,8.93
2023-03-08T03:06:23.997Z,7.60
2023-03-08T03:08:52.017Z,8.30
2023-03-08T03:11:21.950Z,6.00
2023-03-08T03:13:54.836Z,3.77
2023-03-08T03:16:24.290Z,4.37
2023-03-08T03:18:53.084Z,6.27
2023-03-08T03:21:21.199Z,3.97
2023-03-08T03:23:49.079Z,6.53
2023-03-08T03:26:19.650Z,2.70
2023-03-08T03:28:47.554Z,4.77
2023-03-08T03:31:17.763Z,4.10
2023-03-08T03:33:48.606Z,3.70
2023-03-08T03:36:18.754Z,5.20
2023-03-08T03:38:48.243Z,3.10
2023-03-08T03:41:17.722Z,3.47
2023-03-08T03:43:45.794Z,4.73
2023-03-08T03:46:16.115Z,5.37
2023-03-08T03:48:44.480Z,2.83
2023-03-08T03:51:16.220Z,3.30
2023-03-08T03:53:44.095Z,4.30
2023-03-08T03:56:14.565Z,3.20
2023-03-08T03:58:42.644Z,5.00
2023-03-08T04:01:11.763Z,5.07
2023-03-08T04:03:39.864Z,6.37
2023-03-08T04:06:09.225Z,5.77
2023-03-08T04:08:42.154Z,4.70
2023-03-08T04:11:10.413Z,7.27
2023-03-08T04:13:39.076Z,6.93
2023-03-08T04:16:11.362Z,8.50
2023-03-08T04:18:39.409Z,7.57
2023-03-08T04:21:08.183Z,7.40
2023-03-08T04:23:37.974Z,12.13
2023-03-08T04:26:07.115Z,13.67
2023-03-08T04:28:35.120Z,14.27
2023-03-08T04:31:13.333Z,17.57
2023-03-08T04:33:41.245Z,20.33
2023-03-08T04:36:09.595Z,18.90
2023-03-08T04:38:38.838Z,15.50
2023-03-08T04:41:11.855Z,20.40
2023-03-08T04:43:40.516Z,18.07
2023-03-08T04:46:09.221Z,19.23
2023-03-08T04:48:37.171Z,18.23
2023-03-08T04:51:07.320Z,19.53
2023-03-08T04:53:36.948Z,19.70
2023-03-08T04:56:07.630Z,17.73
2023-03-08T04:58:36.717Z,17.13
2023-03-08T05:01:11.116Z,16.93
2023-03-08T05:03:39.357Z,18.13
2023-03-08T05:06:08.092Z,16.33
2023-03-08T05:08:36.548Z,20.93
2023-03-08T05:11:06.612Z,17.70
2023-03-08T05:13:36.153Z,20.33
2023-03-08T05:16:04.731Z,16.40
2023-03-08T05:18:33.075Z,21.87
2023-03-08T05:21:03.060Z,20.60
2023-03-08T05:23:31.398Z,16.87
2023-03-08T05:26:00.678Z,17.77
2023-03-08T05:28:33.177Z,17.20
2023-03-08T05:31:05.050Z,14.47
2023-03-08T05:33:33.069Z,11.53
2023-03-08T05:36:01.120Z,12.77
2023-03-08T05:38:30.250Z,14.63
2023-03-08T05:41:01.703Z,13.37
2023-03-08T05:43:31.207Z,14.00
2023-03-08T05:46:01.031Z,14.87
2023-03-08T05:48:29.731Z,13.40
2023-03-08T05:50:57.753Z,16.40
2023-03-08T05:53:25.900Z,19.97
2023-03-08T05:55:55.631Z,13.70
2023-03-08T05:58:23.384Z,17.37
2023-03-08T06:00:52.623Z,17.80
2023-03-08T06:03:20.484Z,18.70
2023-03-08T06:05:48.460Z,20.00
2023-03-08T06:08:16.684Z,18.33
2023-03-08T06:10:44.556Z,15.83
2023-03-08T06:13:12.419Z,19.83
2023-03-08T06:15:40.341Z,21.83
2023-03-08T06:18:09.554Z,18.67
2023-03-08T06:20:37.440Z,20.17
2023-03-08T06:23:05.358Z,19.70
2023-03-08T06:25:33.197Z,19.83
2023-03-08T06:28:01.320Z,21.33
2023-03-08T06:30:29.271Z,23.37
2023-03-08T06:32:57.087Z,16.87
2023-03-08T06:35:26.382Z,20.27
2023-03-08T06:37:54.320Z,20.00
2023-03-08T06:40:22.505Z,22.57
2023-03-08T06:42:50.316Z,23.53
2023-03-08T06:45:18.270Z,21.07
2023-03-08T06:47:46.089Z,19.37
2023-03-08T06:50:14.001Z,17.77
2023-03-08T06:52:43.202Z,21.53
2023-03-08T06:55:12.289Z,21.53
2023-03-08T06:57:40.254Z,21.43
2023-03-08T07:00:09.645Z,21.37
2023-03-08T07:02:37.760Z,22.33
2023-03-08T07:05:06.210Z,22.17
2023-03-08T07:07:35.616Z,25.17
2023-03-08T07:10:05.754Z,25.70
2023-03-08T07:12:33.602Z,25.47
2023-03-08T07:15:02.402Z,25.07
2023-03-08T07:17:31.652Z,24.00
2023-03-08T07:19:59.492Z,28.33
2023-03-08T07:22:27.434Z,24.20
2023-03-08T07:24:55.232Z,28.97
2023-03-08T07:27:24.593Z,28.77
2023-03-08T07:29:54.221Z,24.40
2023-03-08T07:32:23.844Z,21.63
2023-03-08T07:34:51.738Z,25.03
2023-03-08T07:37:19.531Z,20.50
2023-03-08T07:39:47.547Z,18.47
2023-03-08T07:42:15.893Z,19.80
2023-03-08T07:44:45.485Z,17.80
2023-03-08T07:47:13.503Z,17.87
2023-03-08T07:49:41.250Z,16.43
2023-03-08T07:52:09.230Z,18.50
2023-03-08T07:54:37.166Z,17.90
2023-03-08T07:57:05.955Z,17.20
2023-03-08T07:59:33.868Z,16.70
2023-03-08T08:02:03.024Z,19.13
2023-03-08T08:04:31.202Z,16.00
2023-03-08T08:07:00.178Z,15.03
2023-03-08T08:09:28.057Z,14.43
2023-03-08T08:11:55.936Z,14.83
2023-03-08T08:14:24.616Z,17.73
2023-03-08T08:16:52.429Z,14.37
2023-03-08T08:19:21.602Z,15.03
2023-03-08T08:21:49.665Z,16.67
2023-03-08T08:24:17.517Z,15.07
2023-03-08T08:26:45.389Z,15.60
2023-03-08T08:29:13.434Z,14.23
2023-03-08T08:31:41.803Z,14.63
2023-03-08T08:34:09.990Z,15.90
2023-03-08T08:36:39.290Z,15.57
2023-03-08T08:39:07.147Z,12.73
2023-03-08T08:41:35.207Z,11.93
2023-03-08T08:44:03.283Z,14.33
2023-03-08T08:46:34.121Z,12.43
2023-03-08T08:49:05.558Z,13.77
2023-03-08T08:51:33.960Z,12.83
2023-03-08T08:54:03.355Z,13.43
2023-03-08T08:56:32.018Z,14.33
2023-03-08T08:59:02.181Z,13.67
2023-03-08T09:01:33.242Z,12.87
2023-03-08T09:11:37.778Z,11.60
2023-03-08T09:14:12.793Z,8.30
2023-03-08T09:16:40.664Z,8.17
2023-03-08T09:19:08.817Z,11.13
2023-03-08T09:21:37.477Z,10.83
2023-03-08T09:24:17.131Z,9.40
2023-03-08T09:26:46.653Z,11.00
2023-03-08T09:29:14.491Z,10.57
2023-03-08T09:31:44.264Z,8.07
2023-03-08T09:34:14.268Z,8.43
2023-03-08T09:36:42.492Z,7.60
2023-03-08T09:39:13.063Z,9.43
2023-03-08T09:41:50.905Z,5.80
2023-03-08T09:44:43.812Z,9.70
2023-03-08T09:47:18.517Z,7.83
2023-03-08T09:49:50.908Z,9.97
2023-03-08T09:52:24.322Z,7.20
2023-03-08T09:54:53.888Z,7.17
2023-03-08T09:57:27.775Z,8.00
2023-03-08T09:59:58.086Z,6.13
2023-03-08T10:02:37.112Z,7.23
2023-03-08T10:05:14.255Z,5.87
2023-03-08T10:07:59.202Z,5.47
2023-03-08T10:10:40.900Z,4.57
2023-03-08T10:13:28.164Z,7.70
2023-03-08T10:16:04.552Z,8.30
2023-03-08T10:18:39.115Z,6.17
2023-03-08T10:21:11.081Z,6.93
2023-03-08T10:23:41.433Z,6.00
2023-03-08T10:26:12.058Z,5.57
2023-03-08T10:28:41.713Z,4.63
2023-03-08T10:31:23.084Z,6.37
2023-03-08T10:33:58.189Z,6.53
2023-03-08T10:36:26.929Z,6.50
2023-03-08T10:39:06.330Z,8.97
2023-03-08T10:41:42.197Z,7.77
2023-03-08T10:44:15.365Z,6.87
2023-03-08T10:46:50.942Z,6.40
2023-03-08T10:49:20.660Z,5.40
2023-03-08T10:51:57.021Z,5.30
2023-03-08T10:54:28.425Z,5.73
2023-03-08T10:56:59.667Z,7.73
2023-03-08T10:59:32.636Z,5.13
2023-03-08T11:02:03.309Z,6.40
2023-03-08T11:04:32.124Z,7.50
2023-03-08T11:07:10.507Z,5.83
2023-03-08T11:09:38.249Z,5.60
2023-03-08T11:12:06.600Z,5.80
2023-03-08T11:14:35.912Z,4.57
2023-03-08T11:17:13.546Z,6.30
2023-03-08T11:20:09.890Z,7.13
2023-03-08T11:22:46.584Z,6.20
2023-03-08T11:25:29.974Z,7.57
2023-03-08T11:28:12.786Z,5.17
2023-03-08T11:30:53.485Z,7.30
2023-03-08T11:33:39.161Z,6.60
2023-03-08T11:36:13.156Z,7.37
2023-03-08T11:38:43.439Z,6.30
2023-03-08T11:41:24.051Z,6.93
2023-03-08T11:44:10.470Z,6.63
2023-03-08T11:46:51.693Z,7.13
2023-03-08T11:49:36.060Z,7.57
2023-03-08T11:52:15.329Z,7.87
2023-03-08T11:54:57.392Z,8.43
2023-03-08T11:57:30.100Z,9.20
2023-03-08T12:00:05.417Z,7.53
2023-03-08T12:02:38.823Z,6.37
2023-03-08T12:05:14.520Z,6.93
2023-03-08T12:07:48.789Z,8.37
2023-03-08T12:10:20.577Z,7.70
2023-03-08T12:12:52.549Z,8.27
2023-03-08T12:15:28.608Z,8.03
2023-03-08T12:18:07.531Z,8.27
2023-03-08T12:20:40.804Z,7.80
2023-03-08T12:23:18.525Z,9.37
2023-03-08T12:25:49.697Z,7.60
2023-03-08T12:28:24.451Z,7.50
2023-03-08T12:31:09.249Z,7.80
2023-03-08T12:33:42.448Z,8.07
2023-03-08T12:36:10.474Z,8.77
2023-03-08T12:38:41.014Z,7.57
2023-03-08T12:41:23.783Z,8.03
2023-03-08T12:44:01.375Z,8.30
2023-03-08T12:46:29.328Z,7.00
2023-03-08T12:48:58.729Z,7.87
2023-03-08T12:51:33.253Z,8.97
2023-03-08T12:54:03.126Z,9.17
2023-03-08T12:56:36.936Z,7.00
2023-03-08T12:59:30.474Z,5.97
2023-03-08T13:02:03.840Z,7.53
2023-03-08T13:04:41.426Z,8.83
2023-03-08T13:07:27.771Z,8.40
2023-03-08T13:10:00.880Z,10.63
2023-03-08T13:12:38.078Z,5.50
2023-03-08T13:15:25.855Z,8.03
2023-03-08T13:18:00.282Z,5.27
2023-03-08T13:20:48.389Z,6.13
2023-03-08T13:23:24.898Z,5.63
2023-03-08T13:26:07.118Z,7.53
2023-03-08T13:28:46.654Z,7.30
2023-03-08T13:31:18.618Z,7.03
2023-03-08T13:33:49.746Z,5.93
2023-03-08T13:36:21.467Z,7.83
2023-03-08T13:39:01.769Z,5.70
2023-03-08T13:41:42.651Z,9.27
2023-03-08T13:44:22.542Z,8.27
2023-03-08T13:46:56.200Z,6.43
2023-03-08T13:49:29.049Z,6.73
2023-03-08T13:52:09.643Z,8.27
2023-03-08T13:54:49.323Z,7.30
2023-03-08T13:57:29.755Z,7.27
2023-03-08T14:00:04.103Z,8.37
2023-03-08T14:02:52.013Z,7.63
2023-03-08T14:05:23.946Z,6.60
2023-03-08T14:08:04.933Z,8.07
2023-03-08T14:10:39.015Z,7.60
2023-03-08T14:13:17.330Z,9.23
2023-03-08T14:16:01.677Z,9.10
2023-03-08T14:18:37.018Z,8.57
2023-03-08T14:21:15.815Z,11.70
2023-03-08T14:24:00.903Z,10.47
2023-03-08T14:26:38.461Z,9.40
2023-03-08T14:29:43.434Z,11.67
2023-03-08T14:32:50.074Z,11.60
2023-03-08T14:35:26.806Z,12.57
2023-03-08T14:37:58.666Z,12.30
2023-03-08T14:40:34.356Z,13.80
2023-03-08T14:43:09.936Z,13.17
2023-03-08T14:45:46.945Z,13.93
2023-03-08T14:48:35.588Z,12.17
2023-03-08T14:51:12.940Z,13.60
2023-03-08T14:53:44.914Z,12.87
2023-03-08T14:56:19.366Z,13.53
2023-03-08T14:58:58.006Z,10.90
2023-03-08T15:01:34.924Z,14.57
2023-03-08T15:04:12.049Z,11.87
2023-03-08T15:06:48.508Z,15.40
2023-03-08T15:09:23.327Z,11.83
2023-03-08T15:12:00.220Z,14.33
2023-03-08T15:14:34.752Z,11.97
2023-03-08T15:17:17.008Z,13.20
2023-03-08T15:19:47.556Z,11.07
2023-03-08T15:22:24.436Z,12.10
2023-03-08T15:24:57.968Z,13.40
2023-03-08T15:27:29.589Z,12.70
2023-03-08T15:30:02.760Z,12.20
2023-03-08T15:32:31.073Z,13.80
2023-03-08T15:35:03.079Z,13.63
2023-03-08T15:37:35.198Z,15.33
2023-03-08T15:40:08.562Z,13.37
2023-03-08T15:42:38.314Z,14.00
2023-03-08T15:45:09.684Z,15.27
2023-03-08T15:47:41.336Z,13.63
2023-03-08T15:50:18.469Z,11.77
2023-03-08T15:52:47.502Z,15.27
2023-03-08T15:55:20.047Z,11.20
2023-03-08T15:58:02.018Z,12.93
2023-03-08T16:00:33.087Z,12.37
2023-03-08T16:03:03.937Z,11.73
2023-03-08T16:05:52.578Z,12.63
2023-03-08T16:08:35.006Z,13.83
2023-03-08T16:11:09.811Z,14.27
2023-03-08T16:13:40.661Z,14.40
2023-03-08T16:16:44.436Z,14.90
2023-03-08T16:19:24.185Z,12.83
2023-03-08T16:21:58.434Z,15.80
2023-03-08T16:24:26.917Z,14.17
2023-03-08T16:27:07.418Z,13.03
2023-03-08T16:29:37.300Z,10.97
2023-03-08T16:32:12.582Z,11.67
2023-03-08T16:34:43.719Z,9.10
2023-03-08T16:37:15.916Z,12.00
2023-03-08T16:39:46.589Z,10.83
2023-03-08T16:42:15.456Z,14.60
2023-03-08T16:44:53.827Z,11.03
2023-03-08T16:47:26.061Z,11.03
2023-03-08T16:49:57.946Z,10.87
2023-03-08T16:52:28.582Z,13.67
2023-03-08T16:55:09.782Z,12.17
2023-03-08T16:57:47.731Z,14.20
2023-03-08T17:00:43.072Z,11.60
2023-03-08T17:03:16.528Z,14.03
2023-03-08T17:05:48.518Z,11.70
2023-03-08T17:08:27.154Z,12.43
2023-03-08T17:11:03.704Z,18.23
2023-03-08T17:13:47.698Z,18.27
2023-03-08T17:16:27.313Z,13.60
2023-03-08T17:19:11.424Z,13.97
2023-03-08T17:21:47.191Z,15.43
2023-03-08T17:24:19.524Z,12.93
2023-03-08T17:26:54.936Z,20.10
2023-03-08T17:29:23.078Z,15.83
2023-03-08T17:32:02.539Z,16.20
2023-03-08T17:34:30.661Z,17.07
2023-03-08T17:36:58.755Z,17.47
2023-03-08T17:39:29.577Z,17.63
2023-03-08T17:42:02.563Z,18.17
2023-03-08T17:44:30.819Z,18.43
2023-03-08T17:47:05.486Z,21.10
2023-03-08T17:49:36.251Z,20.27
2023-03-08T17:52:15.254Z,18.27
2023-03-08T17:54:46.445Z,18.33
2023-03-08T17:57:18.906Z,17.97
2023-03-08T17:59:52.893Z,14.93
2023-03-08T18:02:38.063Z,15.70
2023-03-08T18:05:14.191Z,13.60
2023-03-08T18:07:47.787Z,16.47
2023-03-08T18:10:24.857Z,14.77
2023-03-08T18:13:00.353Z,14.23
2023-03-08T18:15:43.465Z,20.37
2023-03-08T18:18:19.299Z,13.77
2023-03-08T18:20:47.402Z,13.97
2023-03-08T18:23:22.200Z,12.70
2023-03-08T18:26:02.746Z,12.97
2023-03-08T18:28:41.300Z,15.57
2023-03-08T18:31:11.239Z,14.33
2023-03-08T18:33:43.566Z,12.80
2023-03-08T18:36:22.290Z,14.37
2023-03-08T18:38:54.867Z,14.93
2023-03-08T18:41:29.168Z,14.67
2023-03-08T18:44:03.074Z,13.47
2023-03-08T18:46:38.366Z,13.87
2023-03-08T18:49:17.887Z,14.80
2023-03-08T18:51:57.281Z,13.63
2023-03-08T18:54:33.219Z,14.87
2023-03-08T18:57:10.260Z,12.07
2023-03-08T18:59:40.158Z,16.87
2023-03-08T19:02:22.495Z,14.73
2023-03-08T19:04:56.897Z,11.83
2023-03-08T19:07:27.943Z,12.77
2023-03-08T19:10:03.753Z,14.40
2023-03-08T19:12:33.890Z,13.00
2023-03-08T19:15:08.705Z,14.97
2023-03-08T19:17:40.114Z,15.57
2023-03-08T19:20:14.198Z,14.33
2023-03-08T19:22:46.139Z,14.50
2023-03-08T19:25:23.235Z,14.60
2023-03-08T19:27:51.732Z,15.00
2023-03-08T19:30:23.465Z,13.77
2023-03-08T19:32:54.599Z,12.37
2023-03-08T19:35:27.529Z,12.13
2023-03-08T19:38:00.433Z,13.20
2023-03-08T19:40:34.788Z,12.90
2023-03-08T19:43:07.403Z,13.23
2023-03-08T19:45:43.393Z,14.10
2023-03-08T19:48:25.768Z,13.27
2023-03-08T19:50:57.803Z,12.50
2023-03-08T19:53:28.278Z,15.77
2023-03-08T19:56:01.327Z,13.50
2023-03-08T19:58:29.636Z,14.90
2023-03-08T20:01:14.742Z,15.87
2023-03-08T20:03:47.930Z,14.63
2023-03-08T20:06:29.637Z,12.47
2023-03-08T20:09:00.701Z,13.13
2023-03-08T20:11:39.523Z,12.90
2023-03-08T20:14:09.109Z,15.13
2023-03-08T20:16:40.355Z,14.27
2023-03-08T20:19:12.458Z,13.27
2023-03-08T20:21:44.485Z,12.57
2023-03-08T20:24:14.760Z,13.63
2023-03-08T20:26:45.276Z,14.10
2023-03-08T20:29:19.754Z,11.17
2023-03-08T20:31:48.436Z,14.60
2023-03-08T20:34:20.820Z,10.93
2023-03-08T20:36:55.475Z,13.60
2023-03-08T20:39:25.811Z,14.37
2023-03-08T20:42:00.241Z,14.77
2023-03-08T20:44:28.719Z,15.27
2023-03-08T20:47:09.440Z,14.80
2023-03-08T20:49:37.799Z,12.33
2023-03-08T20:52:12.694Z,15.13
2023-03-08T20:54:46.298Z,12.63
2023-03-08T20:57:20.613Z,13.33
2023-03-08T20:59:51.942Z,13.07
2023-03-08T21:02:24.307Z,15.73
2023-03-08T21:05:02.151Z,13.73
2023-03-08T21:07:37.665Z,15.50
2023-03-08T21:10:10.829Z,13.63
2023-03-08T21:12:41.343Z,13.47
2023-03-08T21:15:20.781Z,13.53
2023-03-08T21:18:01.641Z,12.37
2023-03-08T21:20:38.792Z,18.07
2023-03-08T21:23:24.165Z,14.77
2023-03-08T21:25:57.407Z,17.07
2023-03-08T21:28:33.544Z,15.63
2023-03-08T21:31:20.173Z,18.73
2023-03-08T21:33:48.981Z,18.30
2023-03-08T21:36:24.158Z,18.00
2023-03-08T21:38:58.296Z,19.37
2023-03-08T21:41:31.474Z,19.30
2023-03-08T21:44:04.948Z,18.57
2023-03-08T21:46:38.069Z,18.50
2023-03-08T21:49:17.115Z,18.20
2023-03-08T21:51:48.652Z,16.80
2023-03-08T21:54:26.624Z,19.00
2023-03-08T21:57:02.143Z,18.50
2023-03-08T21:59:35.256Z,19.67
2023-03-08T22:02:03.591Z,15.67
2023-03-08T22:04:33.345Z,17.50
2023-03-08T22:07:06.443Z,14.27
2023-03-08T22:09:36.089Z,15.77
2023-03-08T22:12:10.203Z,13.63
2023-03-08T22:14:41.156Z,14.13
2023-03-08T22:17:09.403Z,13.83
2023-03-08T22:19:42.644Z,13.80
2023-03-08T22:22:12.756Z,14.00
2023-03-08T22:24:59.644Z,14.33
2023-03-08T22:27:28.313Z,12.70
2023-03-08T22:30:10.792Z,11.37
2023-03-08T22:32:42.455Z,14.13
2023-03-08T22:35:21.422Z,10.47
2023-03-08T22:37:49.807Z,14.50
2023-03-08T22:40:24.107Z,12.40
2023-03-08T22:42:57.512Z,13.07
2023-03-08T22:45:32.713Z,12.30
2023-03-08T22:48:09.209Z,15.30
2023-03-08T22:50:42.507Z,14.37
2023-03-08T22:53:16.636Z,11.13
2023-03-08T22:55:58.427Z,12.13
2023-03-08T22:58:29.403Z,14.50
2023-03-08T23:01:04.932Z,13.03
2023-03-08T23:03:45.829Z,11.43
2023-03-08T23:06:14.290Z,12.73
2023-03-08T23:08:58.120Z,11.47
2023-03-08T23:11:29.637Z,12.13
2023-03-08T23:14:00.260Z,10.20
2023-03-08T23:16:28.932Z,15.10
2023-03-08T23:18:59.346Z,11.77
2023-03-08T23:21:30.764Z,14.30
2023-03-08T23:24:01.514Z,14.30
2023-03-08T23:26:57.948Z,12.60
2023-03-08T23:29:34.493Z,16.13
2023-03-08T23:32:29.507Z,14.63
2023-03-08T23:35:16.083Z,11.40
2023-03-08T23:38:04.493Z,13.90
2023-03-08T23:40:39.049Z,14.53
2023-03-08T23:43:16.908Z,14.23
2023-03-08T23:45:47.614Z,12.20
2023-03-08T23:48:17.647Z,13.80
2023-03-08T23:50:45.901Z,12.77
2023-03-08T23:53:21.622Z,14.23
2023-03-08T23:55:49.929Z,10.33
2023-03-08T23:58:21.054Z,10.67
